Time;durP1;ratioP1;P1;durP2;ratioP2;P2;SDS_P1;SDS_P2;PMS_P1;PMS_P2;Temp;Humidity;BMP_temperature;BMP_pressure;BME280_temperature;BME280_humidity;BME280_pressure;Samples;Min_cycle;Max_cycle;Signal;HPM_P1;HPM_P2
2023/03/07 00:00:13;;;;;;;18.25;8.55;;;2.80;99.90;;;;;;5092826;28;20422;-58
2023/03/07 00:02:38;;;;;;;18.02;8.77;;;2.80;99.90;;;;;;5092872;28;20047;-58
2023/03/07 00:05:05;;;;;;;19.05;8.25;;;4.10;99.90;;;;;;5092846;28;20391;-58
2023/03/07 00:07:31;;;;;;;18.60;8.10;;;3.00;99.90;;;;;;5092599;28;20044;-58
2023/03/07 00:09:57;;;;;;;17.52;7.75;;;2.70;99.90;;;;;;5092928;28;20101;-58
2023/03/07 00:12:23;;;;;;;14.40;6.47;;;2.80;99.90;;;;;;5091895;28;20408;-57
2023/03/07 00:14:49;;;;;;;14.68;6.50;;;4.10;99.90;;;;;;5092652;28;20403;-58
2023/03/07 00:17:15;;;;;;;13.07;5.53;;;3.90;99.90;;;;;;5091376;28;20032;-58
2023/03/07 00:19:42;;;;;;;13.45;4.75;;;2.70;99.90;;;;;;5091493;28;20388;-58
2023/03/07 00:22:08;;;;;;;14.98;4.13;;;3.40;99.90;;;;;;5092325;28;20051;-58
2023/03/07 00:24:34;;;;;;;14.73;3.80;;;2.70;99.90;;;;;;5091523;28;20046;-58
2023/03/07 00:26:59;;;;;;;13.20;3.38;;;2.80;99.90;;;;;;5092666;28;20456;-58
2023/03/07 00:29:25;;;;;;;13.57;3.83;;;3.40;99.90;;;;;;5092296;28;20381;-57
2023/03/07 00:31:51;;;;;;;13.98;2.13;;;2.60;99.90;;;;;;5090769;28;20047;-58
2023/03/07 00:34:16;;;;;;;8.40;2.08;;;3.70;99.90;;;;;;5092108;28;20040;-58
2023/03/07 00:36:42;;;;;;;9.68;1.95;;;2.70;99.90;;;;;;5092350;28;20117;-57
2023/03/07 00:39:08;;;;;;;14.35;2.50;;;3.60;99.90;;;;;;5092397;28;20093;-58
2023/03/07 00:41:33;;;;;;;9.95;2.33;;;3.10;99.90;;;;;;5092262;28;20479;-58
2023/03/07 00:43:59;;;;;;;11.90;2.60;;;2.70;99.90;;;;;;5092270;28;20503;-58
2023/03/07 00:46:25;;;;;;;12.30;2.30;;;3.10;99.90;;;;;;5092545;28;20468;-58
2023/03/07 00:48:52;;;;;;;10.98;2.42;;;3.80;99.90;;;;;;5092139;28;20044;-58
2023/03/07 00:51:18;;;;;;;9.32;2.17;;;2.80;99.90;;;;;;5092155;28;20508;-57
2023/03/07 00:53:44;;;;;;;11.77;1.90;;;3.80;99.90;;;;;;5090922;28;20406;-58
2023/03/07 00:56:17;;;;;;;13.82;2.03;;;3.60;99.90;;;;;;5092314;28;20418;-58
2023/03/07 00:58:43;;;;;;;17.73;2.67;;;2.80;99.90;;;;;;5092005;28;20085;-58
2023/03/07 01:01:11;;;;;;;14.00;1.83;;;2.80;99.90;;;;;;5091970;28;20119;-57
2023/03/07 01:03:37;;;;;;;14.57;1.90;;;2.90;99.90;;;;;;5091722;28;20044;-58
2023/03/07 01:06:05;;;;;;;11.38;2.25;;;3.00;99.90;;;;;;5091933;28;20046;-58
2023/03/07 01:08:31;;;;;;;16.95;2.50;;;2.90;99.90;;;;;;5091988;28;20044;-58
2023/03/07 01:10:59;;;;;;;13.15;2.00;;;2.90;99.90;;;;;;5091952;28;20052;-58
2023/03/07 01:13:24;;;;;;;12.45;1.85;;;3.80;99.90;;;;;;5091868;28;20088;-58
2023/03/07 01:15:50;;;;;;;13.90;2.38;;;2.90;99.90;;;;;;5091907;28;20123;-58
2023/03/07 01:18:16;;;;;;;18.88;1.90;;;3.80;99.90;;;;;;5091303;28;20115;-58
2023/03/07 01:20:42;;;;;;;14.82;1.98;;;3.70;99.90;;;;;;5092096;28;20032;-58
2023/03/07 01:23:08;;;;;;;8.30;1.67;;;3.50;99.90;;;;;;5091931;28;20109;-57
2023/03/07 01:25:52;;;;;;;13.68;1.52;;;3.30;99.90;;;;;;5077763;28;20079;-58
2023/03/07 01:28:17;;;;;;;11.52;2.00;;;3.10;99.90;;;;;;5095787;28;20040;-57
2023/03/07 01:30:43;;;;;;;12.85;1.80;;;3.30;99.90;;;;;;5095719;28;20059;-57
2023/03/07 01:33:09;;;;;;;16.23;2.10;;;3.50;99.90;;;;;;5095689;28;20055;-59
2023/03/07 01:35:38;;;;;;;10.02;1.67;;;3.40;99.90;;;;;;5094447;28;20119;-58
2023/03/07 01:38:05;;;;;;;15.05;2.13;;;3.40;99.90;;;;;;5095689;28;20040;-58
2023/03/07 01:40:31;;;;;;;11.70;1.35;;;3.40;99.90;;;;;;5095486;28;20065;-56
2023/03/07 01:43:27;;;;;;;14.82;1.75;;;3.30;99.90;;;;;;5095626;28;20032;-59
2023/03/07 01:46:16;;;;;;;12.68;2.22;;;2.90;99.90;;;;;;5095812;28;20122;-59
2023/03/07 01:48:49;;;;;;;14.15;1.85;;;2.90;99.90;;;;;;5088662;28;20125;-58
2023/03/07 01:51:16;;;;;;;9.77;1.35;;;2.90;99.90;;;;;;5095179;28;20083;-59
2023/03/07 01:53:42;;;;;;;13.70;1.60;;;2.90;99.90;;;;;;5095101;28;20060;-59
2023/03/07 01:56:09;;;;;;;11.23;1.70;;;2.60;99.90;;;;;;5095448;28;20047;-59
2023/03/07 01:58:37;;;;;;;12.88;1.65;;;2.60;99.90;;;;;;5095449;28;20127;-59
2023/03/07 02:01:05;;;;;;;12.00;1.50;;;2.50;99.90;;;;;;5095258;28;20040;-58
2023/03/07 02:03:54;;;;;;;17.15;1.92;;;2.90;99.90;;;;;;5095157;28;20047;-58
2023/03/07 02:06:19;;;;;;;7.43;1.33;;;2.80;99.90;;;;;;5094629;28;20115;-58
2023/03/07 02:08:48;;;;;;;13.05;1.75;;;2.90;99.90;;;;;;5095055;28;20120;-58
2023/03/07 02:11:15;;;;;;;8.98;1.40;;;2.70;99.90;;;;;;5095141;28;20052;-58
2023/03/07 02:13:41;;;;;;;10.68;1.52;;;2.70;99.90;;;;;;5095125;28;20056;-57
2023/03/07 02:16:07;;;;;;;12.63;2.05;;;2.50;99.90;;;;;;5093623;28;20451;-58
2023/03/07 02:18:37;;;;;;;12.25;1.40;;;2.70;99.90;;;;;;5094841;28;20071;-57
2023/03/07 02:21:45;;;;;;;11.30;2.08;;;2.70;99.90;;;;;;5095066;28;20044;-58
2023/03/07 02:24:36;;;;;;;9.65;1.48;;;2.70;99.90;;;;;;5074827;28;20140;-58
2023/03/07 02:27:02;;;;;;;13.27;2.15;;;2.80;99.90;;;;;;5094703;28;20039;-58
2023/03/07 02:29:28;;;;;;;12.43;1.67;;;2.70;99.90;;;;;;5094851;28;20048;-60
2023/03/07 02:31:53;;;;;;;9.40;1.63;;;2.90;99.90;;;;;;5094771;28;20119;-59
2023/03/07 02:34:21;;;;;;;13.43;1.60;;;2.80;99.90;;;;;;5094466;28;20119;-58
2023/03/07 02:36:57;;;;;;;10.95;1.10;;;2.80;99.90;;;;;;5093701;28;20119;-59
2023/03/07 02:39:25;;;;;;;12.90;1.20;;;2.90;99.90;;;;;;5094309;28;20126;-58
2023/03/07 02:41:54;;;;;;;9.40;1.48;;;2.80;99.90;;;;;;5094471;28;20055;-58
2023/03/07 02:44:20;;;;;;;14.82;2.10;;;2.50;99.90;;;;;;5094466;28;20043;-58
2023/03/07 02:46:46;;;;;;;15.00;2.60;;;2.80;99.90;;;;;;5094481;28;20105;-58
2023/03/07 02:49:12;;;;;;;20.23;3.50;;;2.80;99.90;;;;;;5094358;28;20040;-58
2023/03/07 02:51:38;;;;;;;8.52;1.25;;;2.60;99.90;;;;;;5094000;28;20530;-58
2023/03/07 02:54:04;;;;;;;8.50;1.60;;;2.80;99.90;;;;;;5093890;28;20098;-58
2023/03/07 02:56:30;;;;;;;13.05;1.52;;;2.80;99.90;;;;;;5094097;28;20043;-58
2023/03/07 02:58:56;;;;;;;11.40;1.70;;;2.50;99.90;;;;;;5094498;28;20123;-58
2023/03/07 03:01:22;;;;;;;11.32;2.30;;;2.40;99.90;;;;;;5094216;28;20381;-59
2023/03/07 03:03:47;;;;;;;11.48;1.10;;;2.40;99.90;;;;;;5094070;28;20047;-59
2023/03/07 03:06:13;;;;;;;13.30;1.63;;;2.70;99.90;;;;;;5093835;28;20400;-58
2023/03/07 03:08:39;;;;;;;7.82;1.50;;;2.70;99.90;;;;;;5093834;28;20492;-59
2023/03/07 03:11:05;;;;;;;9.27;1.13;;;2.60;99.90;;;;;;5093830;28;20044;-58
2023/03/07 03:13:30;;;;;;;10.73;1.88;;;2.60;99.90;;;;;;5094025;28;20077;-58
2023/03/07 03:15:56;;;;;;;7.32;1.27;;;2.40;99.90;;;;;;5093800;28;20392;-57
2023/03/07 03:18:29;;;;;;;10.57;1.35;;;2.50;99.90;;;;;;5092461;28;20040;-58
2023/03/07 03:20:55;;;;;;;7.85;1.40;;;2.50;99.90;;;;;;5093560;28;20045;-56
2023/03/07 03:23:21;;;;;;;6.32;0.93;;;2.50;99.90;;;;;;5093416;28;20404;-58
2023/03/07 03:25:56;;;;;;;7.38;1.20;;;2.30;99.90;;;;;;5093651;28;20047;-58
2023/03/07 03:28:22;;;;;;;9.52;1.58;;;2.50;99.90;;;;;;5093651;28;20051;-58
2023/03/07 03:31:00;;;;;;;9.00;1.52;;;2.40;99.90;;;;;;5092142;28;20502;-58
2023/03/07 03:33:28;;;;;;;8.93;1.38;;;2.40;99.90;;;;;;5093297;28;20048;-58
2023/03/07 03:35:58;;;;;;;9.98;1.30;;;2.30;99.90;;;;;;5093061;28;20039;-58
2023/03/07 03:38:25;;;;;;;10.73;1.30;;;2.30;99.90;;;;;;5091950;28;20047;-58
2023/03/07 03:40:51;;;;;;;9.48;1.23;;;2.30;99.90;;;;;;5093248;28;20032;-57
2023/03/07 03:43:17;;;;;;;8.65;1.17;;;2.30;99.90;;;;;;5093153;28;20488;-59
2023/03/07 03:45:43;;;;;;;7.72;1.17;;;2.30;99.90;;;;;;5093557;28;20044;-58
2023/03/07 03:48:09;;;;;;;7.45;1.20;;;2.30;99.90;;;;;;5092977;28;20625;-59
2023/03/07 03:50:34;;;;;;;9.98;1.40;;;2.40;99.90;;;;;;5091806;28;20044;-58
2023/03/07 03:53:01;;;;;;;8.60;1.17;;;2.40;99.90;;;;;;5092792;28;20077;-59
2023/03/07 03:55:26;;;;;;;8.57;1.10;;;2.30;99.90;;;;;;5093015;28;20040;-58
2023/03/07 03:57:52;;;;;;;6.70;0.95;;;2.40;99.90;;;;;;5092965;28;20446;-59
2023/03/07 04:00:18;;;;;;;9.57;1.10;;;2.40;99.90;;;;;;5091749;28;20048;-58
2023/03/07 04:02:45;;;;;;;7.38;1.30;;;2.40;99.90;;;;;;5092779;28;20046;-59
2023/03/07 04:05:11;;;;;;;8.38;1.20;;;2.20;99.90;;;;;;5093092;28;20093;-59
2023/03/07 04:07:37;;;;;;;10.77;1.75;;;2.30;99.90;;;;;;5092731;28;20043;-58
2023/03/07 04:10:04;;;;;;;7.10;1.25;;;2.40;99.90;;;;;;5092861;28;20036;-59
2023/03/07 04:12:30;;;;;;;20.10;2.33;;;2.40;99.90;;;;;;5092541;28;20051;-59
2023/03/07 04:14:56;;;;;;;13.90;2.38;;;2.40;99.90;;;;;;5091361;28;20036;-59
2023/03/07 04:17:21;;;;;;;9.45;1.25;;;2.40;99.90;;;;;;5092477;28;20043;-59
2023/03/07 04:19:47;;;;;;;8.10;1.42;;;2.40;99.90;;;;;;5091479;28;20035;-58
2023/03/07 04:22:13;;;;;;;9.77;1.35;;;2.60;99.90;;;;;;5092427;28;20043;-59
2023/03/07 04:24:38;;;;;;;9.02;1.48;;;2.40;99.90;;;;;;5091202;28;20071;-58
2023/03/07 04:27:04;;;;;;;10.00;1.30;;;2.30;99.90;;;;;;5092393;28;20036;-59
2023/03/07 04:29:30;;;;;;;10.38;1.60;;;2.50;99.90;;;;;;5091191;28;20044;-58
2023/03/07 04:31:56;;;;;;;9.43;2.47;;;2.30;99.90;;;;;;5092203;28;20044;-58
2023/03/07 04:34:21;;;;;;;6.90;1.40;;;2.40;99.90;;;;;;5092518;28;20133;-58
2023/03/07 04:36:47;;;;;;;9.57;1.73;;;2.30;99.90;;;;;;5092202;28;20121;-58
2023/03/07 04:39:13;;;;;;;11.80;1.52;;;2.50;99.90;;;;;;5092328;28;20046;-58
2023/03/07 04:41:38;;;;;;;10.65;1.45;;;2.30;99.90;;;;;;5092126;28;20044;-58
2023/03/07 04:44:04;;;;;;;10.23;1.75;;;2.40;99.90;;;;;;5090847;28;20046;-58
2023/03/07 04:46:30;;;;;;;11.68;1.73;;;2.40;99.90;;;;;;5092317;28;20085;-59
2023/03/07 04:48:56;;;;;;;11.15;1.15;;;2.50;99.90;;;;;;5092458;28;20036;-58
2023/03/07 04:51:22;;;;;;;7.75;1.42;;;2.50;99.90;;;;;;5092244;28;20107;-58
2023/03/07 04:53:47;;;;;;;13.60;1.48;;;2.40;99.90;;;;;;5092088;28;20087;-58
2023/03/07 04:56:16;;;;;;;9.07;1.65;;;2.60;99.90;;;;;;5092063;28;20122;-59
2023/03/07 04:58:42;;;;;;;7.43;1.13;;;2.50;99.90;;;;;;5091630;28;20506;-59
2023/03/07 05:01:08;;;;;;;13.63;1.92;;;2.50;99.90;;;;;;5090626;28;20105;-57
2023/03/07 05:03:35;;;;;;;9.73;1.23;;;2.90;99.90;;;;;;5092198;28;20036;-58
2023/03/07 05:06:09;;;;;;;9.10;1.65;;;2.80;99.90;;;;;;5092163;28;20072;-57
2023/03/07 05:08:35;;;;;;;11.60;2.05;;;2.70;99.90;;;;;;5091904;28;20047;-58
2023/03/07 05:11:01;;;;;;;10.00;2.13;;;3.00;99.90;;;;;;5091855;28;20504;-58
2023/03/07 05:13:27;;;;;;;9.82;2.20;;;2.60;99.90;;;;;;5091688;28;20123;-58
2023/03/07 05:15:55;;;;;;;6.47;1.20;;;2.60;99.90;;;;;;5091844;28;20122;-58
2023/03/07 05:18:21;;;;;;;7.57;1.10;;;2.60;99.90;;;;;;5091235;28;20071;-59
2023/03/07 05:20:47;;;;;;;6.70;1.20;;;2.60;99.90;;;;;;5091843;28;20068;-58
2023/03/07 05:23:12;;;;;;;6.70;1.20;;;2.80;99.90;;;;;;5091811;28;20078;-58
2023/03/07 05:25:38;;;;;;;4.68;1.20;;;2.70;99.90;;;;;;5090649;28;20051;-58
2023/03/07 05:28:04;;;;;;;6.80;1.10;;;2.90;99.90;;;;;;5090394;28;20056;-58
2023/03/07 05:30:29;;;;;;;5.00;1.00;;;2.50;99.90;;;;;;5090436;28;20388;-57
2023/03/07 05:32:55;;;;;;;6.70;1.35;;;2.40;99.90;;;;;;5090602;28;20126;-57
2023/03/07 05:35:23;;;;;;;6.32;1.25;;;2.10;99.90;;;;;;5090576;28;20036;-58
2023/03/07 05:37:50;;;;;;;5.38;0.88;;;2.10;99.90;;;;;;5091506;28;20104;-59
2023/03/07 05:40:17;;;;;;;5.43;1.55;;;2.00;99.90;;;;;;5091687;28;20036;-58
2023/03/07 05:42:43;;;;;;;6.40;1.20;;;2.40;99.90;;;;;;5091330;28;20043;-58
2023/03/07 05:45:09;;;;;;;10.85;2.05;;;2.10;99.90;;;;;;5091616;28;20089;-58
2023/03/07 05:47:36;;;;;;;6.22;1.40;;;2.70;99.90;;;;;;5091650;28;20040;-58
2023/03/07 05:50:02;;;;;;;9.02;1.20;;;2.30;99.90;;;;;;5091725;28;20128;-58
2023/03/07 05:52:28;;;;;;;8.15;1.40;;;2.60;99.90;;;;;;5091183;28;20040;-58
2023/03/07 05:54:54;;;;;;;10.18;2.35;;;2.30;99.90;;;;;;5090590;28;20059;-57
2023/03/07 05:57:20;;;;;;;4.47;1.17;;;2.30;99.90;;;;;;5091246;28;20150;-58
2023/03/07 05:59:46;;;;;;;8.65;1.10;;;2.20;99.90;;;;;;5091612;28;20051;-57
2023/03/07 06:02:12;;;;;;;10.70;1.70;;;2.20;99.90;;;;;;5091365;28;20040;-57
2023/03/07 06:04:38;;;;;;;4.47;0.95;;;2.20;99.90;;;;;;5091212;28;20040;-57
2023/03/07 06:07:03;;;;;;;5.75;0.95;;;2.60;99.90;;;;;;5074800;28;20380;-58
2023/03/07 06:09:29;;;;;;;4.15;0.82;;;2.20;99.90;;;;;;5069644;28;20066;-57
2023/03/07 06:11:55;;;;;;;6.25;1.02;;;2.40;99.90;;;;;;5072193;28;20040;-58
2023/03/07 06:14:21;;;;;;;5.93;1.10;;;2.20;99.90;;;;;;5073240;28;20087;-57
2023/03/07 06:16:46;;;;;;;6.05;0.80;;;2.00;99.90;;;;;;5091402;28;20469;-57
2023/03/07 06:19:12;;;;;;;8.25;1.05;;;2.10;99.90;;;;;;5093275;28;20044;-57
2023/03/07 06:21:38;;;;;;;3.53;0.85;;;2.50;99.90;;;;;;5092109;28;20036;-57
2023/03/07 06:24:06;;;;;;;7.50;1.17;;;2.10;99.90;;;;;;5093320;28;20032;-57
2023/03/07 06:26:31;;;;;;;4.88;0.90;;;2.50;99.90;;;;;;5092232;28;20044;-57
2023/03/07 06:28:57;;;;;;;3.65;0.90;;;2.40;99.90;;;;;;5093492;28;20471;-58
2023/03/07 06:31:23;;;;;;;6.20;1.02;;;2.10;99.90;;;;;;5082351;28;20076;-58
2023/03/07 06:33:50;;;;;;;9.27;1.00;;;2.30;99.90;;;;;;5083640;28;20476;-57
2023/03/07 06:36:17;;;;;;;5.90;1.13;;;2.40;99.90;;;;;;5082214;28;20044;-57
2023/03/07 06:38:43;;;;;;;3.13;0.77;;;2.20;99.90;;;;;;5081593;28;20036;-59
2023/03/07 06:41:09;;;;;;;5.72;0.93;;;2.50;99.90;;;;;;5082712;28;20518;-58
2023/03/07 06:43:35;;;;;;;4.85;0.90;;;2.20;99.90;;;;;;5082845;28;20044;-58
2023/03/07 06:46:01;;;;;;;4.15;1.20;;;2.40;99.90;;;;;;5082833;28;20036;-58
2023/03/07 06:48:27;;;;;;;7.32;1.13;;;2.50;99.90;;;;;;5082031;28;20394;-58
2023/03/07 06:50:53;;;;;;;7.20;1.00;;;2.30;99.90;;;;;;5084249;28;20058;-58
2023/03/07 06:53:19;;;;;;;4.30;0.82;;;2.30;99.90;;;;;;5081388;28;20040;-58
2023/03/07 06:55:49;;;;;;;6.10;0.98;;;2.30;99.90;;;;;;5080856;28;20453;-58
2023/03/07 06:58:15;;;;;;;4.40;0.90;;;2.20;99.90;;;;;;5080804;28;20029;-56
2023/03/07 07:00:41;;;;;;;4.85;1.10;;;2.50;99.90;;;;;;5083027;28;20032;-57
2023/03/07 07:03:06;;;;;;;4.50;0.70;;;2.50;99.90;;;;;;5091040;28;20040;-57
2023/03/07 07:05:32;;;;;;;5.25;0.80;;;2.30;99.90;;;;;;5092236;28;20047;-57
2023/03/07 07:07:58;;;;;;;4.85;0.90;;;2.40;99.90;;;;;;5092516;28;20412;-58
2023/03/07 07:10:23;;;;;;;5.60;0.90;;;2.20;99.90;;;;;;5092254;28;20071;-58
2023/03/07 07:12:53;;;;;;;7.05;1.00;;;2.50;99.90;;;;;;5092398;28;20373;-57
2023/03/07 07:15:19;;;;;;;3.25;0.70;;;2.20;99.90;;;;;;5092531;28;20454;-57
2023/03/07 07:17:44;;;;;;;5.38;0.80;;;2.40;99.90;;;;;;5092324;28;20044;-57
2023/03/07 07:20:10;;;;;;;4.35;0.90;;;2.30;99.90;;;;;;5091951;28;20040;-57
2023/03/07 07:22:36;;;;;;;3.75;0.70;;;2.30;99.90;;;;;;5091753;28;20113;-57
2023/03/07 07:25:02;;;;;;;5.60;0.70;;;2.50;99.90;;;;;;5092250;28;20036;-58
2023/03/07 07:27:28;;;;;;;6.03;0.90;;;2.50;99.90;;;;;;5092137;28;20048;-56
2023/03/07 07:29:54;;;;;;;7.15;0.90;;;2.40;99.90;;;;;;5087697;28;20047;-57
2023/03/07 07:32:20;;;;;;;1.88;0.50;;;2.60;99.90;;;;;;5080835;28;20040;-57
2023/03/07 07:34:45;;;;;;;2.95;0.90;;;2.40;99.90;;;;;;5080860;28;20043;-58
2023/03/07 07:37:11;;;;;;;6.85;1.02;;;2.30;99.90;;;;;;5085343;28;20042;-57
2023/03/07 07:39:40;;;;;;;3.38;1.00;;;2.20;99.90;;;;;;5090703;28;20122;-56
2023/03/07 07:42:05;;;;;;;4.57;0.60;;;2.30;99.90;;;;;;5090618;28;20484;-58
2023/03/07 07:44:31;;;;;;;1.83;0.70;;;2.30;99.90;;;;;;5091665;28;20039;-58
2023/03/07 07:46:57;;;;;;;2.83;0.90;;;2.40;99.90;;;;;;5091612;28;20036;-58
2023/03/07 07:49:23;;;;;;;5.85;1.00;;;2.30;99.90;;;;;;5091411;28;20039;-57
2023/03/07 07:51:49;;;;;;;8.55;1.13;;;2.40;99.90;;;;;;5091330;28;20082;-58
2023/03/07 07:54:14;;;;;;;6.22;1.08;;;2.30;99.90;;;;;;5089792;28;20462;-61
2023/03/07 07:56:40;;;;;;;4.60;1.20;;;2.30;99.90;;;;;;5091977;28;20063;-55
2023/03/07 07:59:06;;;;;;;7.03;1.10;;;2.60;99.90;;;;;;5091597;28;20040;-57
2023/03/07 08:01:32;;;;;;;5.95;1.25;;;2.60;99.90;;;;;;5091520;28;20052;-56
2023/03/07 08:03:58;;;;;;;4.75;1.13;;;2.60;99.90;;;;;;5091578;28;20043;-56
2023/03/07 08:06:26;;;;;;;4.90;1.25;;;2.80;99.90;;;;;;5091333;28;20040;-56
2023/03/07 08:08:52;;;;;;;4.28;1.08;;;2.70;99.90;;;;;;5091602;28;20076;-57
2023/03/07 08:11:19;;;;;;;3.30;0.80;;;2.90;99.90;;;;;;5091016;28;20097;-57
2023/03/07 08:13:45;;;;;;;6.82;0.90;;;2.80;99.90;;;;;;5091189;28;20044;-56
2023/03/07 08:16:13;;;;;;;5.53;1.00;;;2.80;99.90;;;;;;5091208;28;20055;-57
2023/03/07 08:18:40;;;;;;;13.15;2.38;;;2.70;99.90;;;;;;5090002;28;20047;-57
2023/03/07 08:21:07;;;;;;;5.63;0.98;;;3.00;99.90;;;;;;5090985;28;20475;-56
2023/03/07 08:23:33;;;;;;;6.68;1.00;;;3.10;99.90;;;;;;5091295;28;20028;-56
2023/03/07 08:26:03;;;;;;;6.32;1.10;;;2.70;99.90;;;;;;5091344;28;20480;-55
2023/03/07 08:28:29;;;;;;;4.38;1.05;;;2.90;99.90;;;;;;5090805;28;20471;-56
2023/03/07 08:30:55;;;;;;;4.97;1.33;;;2.80;99.90;;;;;;5087905;28;20082;-61
2023/03/07 08:33:20;;;;;;;8.45;1.40;;;2.50;99.90;;;;;;5080862;28;20044;-58
2023/03/07 08:35:46;;;;;;;4.75;1.05;;;2.80;99.90;;;;;;5083392;28;20043;-52
2023/03/07 08:38:11;;;;;;;6.13;1.23;;;2.50;99.90;;;;;;5082563;28;20044;-58
2023/03/07 08:40:37;;;;;;;6.60;1.20;;;2.80;99.90;;;;;;5081999;28;20036;-58
2023/03/07 08:43:03;;;;;;;6.90;1.10;;;2.50;99.90;;;;;;5082980;28;20040;-58
2023/03/07 08:45:29;;;;;;;6.47;1.00;;;2.50;99.90;;;;;;5083881;28;20127;-58
2023/03/07 08:47:55;;;;;;;5.13;1.00;;;2.90;99.90;;;;;;5082038;28;20585;-58
2023/03/07 08:50:27;;;;;;;6.65;1.95;;;2.90;99.90;;;;;;5080714;28;20060;-59
2023/03/07 08:52:52;;;;;;;5.38;0.90;;;2.50;99.90;;;;;;5083723;28;20153;-59
2023/03/07 08:55:19;;;;;;;4.25;0.90;;;3.00;99.90;;;;;;5083674;28;20079;-59
2023/03/07 08:57:46;;;;;;;7.53;1.10;;;3.00;99.90;;;;;;5084812;28;21189;-59
2023/03/07 09:00:12;;;;;;;5.28;1.00;;;2.40;99.90;;;;;;5084507;28;20062;-58
2023/03/07 09:02:38;;;;;;;14.20;2.05;;;2.40;99.90;;;;;;5084012;28;20532;-60
2023/03/07 09:05:04;;;;;;;6.88;1.52;;;2.70;99.90;;;;;;5085206;28;20069;-59
2023/03/07 09:07:30;;;;;;;8.20;1.50;;;2.80;99.90;;;;;;5083604;28;20028;-57
2023/03/07 09:09:56;;;;;;;3.60;1.10;;;2.40;99.90;;;;;;5084685;28;20371;-59
2023/03/07 09:12:22;;;;;;;3.22;0.77;;;2.60;99.90;;;;;;5084303;28;20040;-59
2023/03/07 09:14:47;;;;;;;4.00;1.00;;;2.50;99.90;;;;;;5084356;28;20123;-58
2023/03/07 09:17:13;;;;;;;4.03;0.80;;;2.80;99.90;;;;;;5084701;28;20124;-59
2023/03/07 09:19:39;;;;;;;5.53;1.05;;;2.80;99.90;;;;;;5083604;28;20047;-59
2023/03/07 09:22:04;;;;;;;8.50;1.48;;;2.40;99.90;;;;;;5085092;28;20571;-60
2023/03/07 09:24:30;;;;;;;5.60;0.90;;;2.50;99.90;;;;;;5085361;28;20571;-60
2023/03/07 09:26:56;;;;;;;6.07;1.33;;;2.70;99.90;;;;;;5085013;28;20380;-60
2023/03/07 09:29:22;;;;;;;6.07;0.98;;;2.70;99.90;;;;;;5084016;28;20036;-58
2023/03/07 09:31:47;;;;;;;9.75;1.08;;;2.40;99.90;;;;;;5083612;28;20036;-59
2023/03/07 09:34:13;;;;;;;4.15;0.80;;;2.60;99.90;;;;;;5085031;28;20445;-60
2023/03/07 09:36:39;;;;;;;5.13;1.05;;;2.50;99.90;;;;;;5085345;28;20750;-60
2023/03/07 09:39:04;;;;;;;4.93;1.20;;;2.40;99.90;;;;;;5085182;28;20040;-59
2023/03/07 09:41:48;;;;;;;6.95;1.52;;;2.60;99.90;;;;;;5085394;28;20093;-60
2023/03/07 09:44:42;;;;;;;5.30;1.13;;;2.60;99.90;;;;;;5085145;28;20917;-59
2023/03/07 09:47:30;;;;;;;6.50;1.80;;;2.90;99.90;;;;;;5078256;28;20078;-58
2023/03/07 09:50:00;;;;;;;5.75;1.02;;;2.90;99.90;;;;;;5087712;28;20032;-60
2023/03/07 09:52:28;;;;;;;4.32;1.10;;;2.40;99.90;;;;;;5087357;28;20058;-60
2023/03/07 09:54:59;;;;;;;4.75;1.00;;;2.80;99.90;;;;;;5088671;28;20402;-56
2023/03/07 09:57:32;;;;;;;3.13;0.80;;;2.70;99.90;;;;;;5088129;28;20384;-60
2023/03/07 10:00:05;;;;;;;4.63;1.10;;;2.50;99.90;;;;;;5088020;28;20035;-60
2023/03/07 10:02:42;;;;;;;5.30;0.73;;;2.90;99.90;;;;;;5089810;28;20410;-61
2023/03/07 10:05:43;;;;;;;6.13;1.25;;;2.60;99.90;;;;;;5090415;28;21314;-57
2023/03/07 10:08:30;;;;;;;3.47;0.85;;;2.80;99.90;;;;;;5089879;28;20047;-58
2023/03/07 10:11:05;;;;;;;7.82;1.27;;;2.50;99.90;;;;;;5089597;28;20495;-58
2023/03/07 10:13:49;;;;;;;5.32;1.05;;;2.80;99.90;;;;;;5085829;28;20423;-57
2023/03/07 10:16:36;;;;;;;8.07;0.95;;;2.60;99.90;;;;;;5089062;28;20346;-58
2023/03/07 10:19:13;;;;;;;3.38;1.00;;;2.80;99.90;;;;;;5089584;28;20036;-58
2023/03/07 10:22:02;;;;;;;7.75;1.65;;;3.10;99.90;;;;;;5089295;28;20039;-59
2023/03/07 10:24:49;;;;;;;9.40;1.50;;;3.20;99.90;;;;;;5089522;28;20044;-58
2023/03/07 10:27:16;;;;;;;6.82;1.55;;;3.20;99.90;;;;;;5089542;28;20031;-58
2023/03/07 10:29:49;;;;;;;6.30;1.27;;;3.40;99.90;;;;;;5088601;28;20093;-58
2023/03/07 10:32:24;;;;;;;5.88;1.55;;;3.20;99.90;;;;;;5087914;28;20056;-59
2023/03/07 10:35:01;;;;;;;5.80;1.60;;;3.30;99.90;;;;;;5089373;28;20731;-59
2023/03/07 10:37:58;;;;;;;6.47;1.00;;;3.30;99.90;;;;;;5088009;28;20048;-59
2023/03/07 10:40:26;;;;;;;3.92;0.82;;;3.20;99.90;;;;;;5088568;28;20039;-58
2023/03/07 10:42:53;;;;;;;9.52;1.65;;;3.30;99.90;;;;;;5087324;28;20052;-60
2023/03/07 10:45:20;;;;;;;8.18;1.27;;;3.50;99.90;;;;;;5087631;28;20181;-60
2023/03/07 10:47:46;;;;;;;8.35;1.40;;;3.70;99.90;;;;;;5088871;28;20048;-61
2023/03/07 10:50:35;;;;;;;7.30;1.70;;;3.90;99.90;;;;;;5087398;28;20036;-61
2023/03/07 10:53:03;;;;;;;8.65;1.52;;;4.20;99.90;;;;;;5087581;28;20048;-60
2023/03/07 10:55:45;;;;;;;7.38;1.27;;;4.30;99.90;;;;;;5088273;28;20063;-59
2023/03/07 10:58:24;;;;;;;9.95;1.85;;;4.40;99.90;;;;;;5086310;28;20105;-60
2023/03/07 11:01:02;;;;;;;11.02;2.45;;;4.30;99.90;;;;;;5088630;28;20067;-58
2023/03/07 11:03:39;;;;;;;8.48;1.02;;;4.50;99.90;;;;;;5088881;28;20139;-58
2023/03/07 11:06:05;;;;;;;8.68;1.50;;;4.40;99.90;;;;;;5086253;28;20044;-59
2023/03/07 11:08:35;;;;;;;7.20;1.40;;;4.80;99.90;;;;;;5089124;28;20064;-60
2023/03/07 11:11:03;;;;;;;7.93;1.10;;;5.10;99.90;;;;;;5089430;28;20058;-60
2023/03/07 11:13:30;;;;;;;7.15;0.90;;;5.20;99.90;;;;;;5088763;28;20066;-58
2023/03/07 11:16:18;;;;;;;4.70;1.08;;;5.00;99.90;;;;;;5089118;28;20040;-59
2023/03/07 11:18:44;;;;;;;11.25;1.52;;;4.50;99.90;;;;;;5087588;28;20044;-58
2023/03/07 11:21:30;;;;;;;9.40;1.30;;;4.20;99.90;;;;;;5088886;28;20025;-59
2023/03/07 11:24:03;;;;;;;6.68;1.10;;;3.70;99.90;;;;;;5085861;28;20044;-58
2023/03/07 11:26:32;;;;;;;5.00;0.88;;;3.50;99.90;;;;;;5086123;28;20074;-58
2023/03/07 11:29:09;;;;;;;10.10;1.02;;;3.60;99.90;;;;;;5088437;28;20056;-58
2023/03/07 11:32:07;;;;;;;3.45;1.20;;;3.60;99.90;;;;;;5088062;28;20040;-59
2023/03/07 11:34:41;;;;;;;6.18;1.50;;;3.50;99.90;;;;;;5088295;28;20032;-58
2023/03/07 11:37:30;;;;;;;2.50;0.98;;;3.50;99.90;;;;;;5087572;28;20500;-58
2023/03/07 11:40:11;;;;;;;4.25;0.90;;;3.30;99.90;;;;;;5087403;28;20045;-58
2023/03/07 11:42:45;;;;;;;5.80;1.23;;;3.40;99.90;;;;;;5088285;28;20083;-58
2023/03/07 11:45:50;;;;;;;3.78;1.05;;;3.30;99.90;;;;;;5087054;28;20051;-58
2023/03/07 11:48:39;;;;;;;5.78;1.05;;;3.60;99.90;;;;;;5065429;28;20051;-58
2023/03/07 11:51:20;;;;;;;5.00;1.20;;;4.00;99.90;;;;;;5086097;28;20043;-60
2023/03/07 11:54:20;;;;;;;3.30;0.93;;;4.30;99.90;;;;;;5087647;28;20044;-60
2023/03/07 11:56:51;;;;;;;8.30;0.90;;;4.70;99.90;;;;;;5076845;28;20047;-60
2023/03/07 11:59:34;;;;;;;3.47;0.75;;;4.90;99.90;;;;;;5085309;28;20067;-61
2023/03/07 12:02:03;;;;;;;4.90;0.70;;;5.20;99.90;;;;;;5085892;28;20040;-60
2023/03/07 12:04:56;;;;;;;5.72;0.80;;;5.40;99.90;;;;;;5087603;28;20032;-62
2023/03/07 12:07:40;;;;;;;7.82;1.08;;;5.40;99.90;;;;;;5087044;28;20040;-60
2023/03/07 12:10:40;;;;;;;3.05;0.70;;;5.60;99.90;;;;;;5086878;28;20036;-60
2023/03/07 12:13:20;;;;;;;6.03;0.82;;;5.40;99.90;;;;;;5087467;28;20035;-58
2023/03/07 12:16:07;;;;;;;3.25;0.80;;;5.60;99.90;;;;;;5086767;28;20076;-59
2023/03/07 12:18:44;;;;;;;2.65;0.73;;;5.70;99.90;;;;;;5087236;28;20042;-58
2023/03/07 12:21:22;;;;;;;4.05;0.77;;;5.90;99.90;;;;;;5087113;28;20361;-58
2023/03/07 12:23:55;;;;;;;6.22;1.00;;;5.70;99.90;;;;;;5086452;28;20039;-58
2023/03/07 12:26:27;;;;;;;2.72;0.52;;;5.80;99.90;;;;;;5084145;28;20044;-59
2023/03/07 12:29:05;;;;;;;7.68;0.90;;;5.40;99.90;;;;;;5086227;28;20044;-59
2023/03/07 12:31:38;;;;;;;9.40;0.90;;;5.10;99.90;;;;;;5085545;28;20050;-59
2023/03/07 12:34:14;;;;;;;3.80;0.80;;;4.90;99.90;;;;;;5086011;28;20062;-58
2023/03/07 12:36:43;;;;;;;6.07;1.23;;;5.00;99.90;;;;;;5085897;28;20054;-59
2023/03/07 12:39:31;;;;;;;2.60;0.70;;;5.20;99.90;;;;;;5086961;28;20501;-58
2023/03/07 12:42:03;;;;;;;2.42;0.80;;;5.60;99.90;;;;;;5087085;28;20585;-58
2023/03/07 12:44:37;;;;;;;3.30;0.85;;;5.90;99.90;;;;;;5087234;28;20043;-58
2023/03/07 12:47:10;;;;;;;4.93;0.95;;;5.90;99.90;;;;;;5087255;28;20167;-58
2023/03/07 12:49:52;;;;;;;4.28;0.93;;;5.90;99.90;;;;;;5087234;28;20044;-59
2023/03/07 12:52:40;;;;;;;6.43;1.85;;;5.70;99.90;;;;;;5087318;28;20043;-59
2023/03/07 12:55:26;;;;;;;5.90;1.38;;;5.30;99.90;;;;;;5084263;28;20078;-59
2023/03/07 12:58:19;;;;;;;4.75;1.25;;;5.20;99.90;;;;;;5065113;28;20054;-58
2023/03/07 13:00:57;;;;;;;5.25;1.00;;;5.30;99.90;;;;;;5087206;28;20036;-59
2023/03/07 13:03:39;;;;;;;11.50;1.52;;;5.20;99.90;;;;;;5086841;28;20396;-58
2023/03/07 13:06:10;;;;;;;5.73;1.10;;;5.20;99.90;;;;;;5086699;28;20069;-60
2023/03/07 13:08:36;;;;;;;6.55;1.00;;;5.40;99.90;;;;;;5084967;28;20488;-59